Time;durP1;ratioP1;P1;durP2;ratioP2;P2;SDS_P1;SDS_P2;PMS_P1;PMS_P2;Temp;Humidity;BMP_temperature;BMP_pressure;BME280_temperature;BME280_humidity;BME280_pressure;Samples;Min_cycle;Max_cycle;Signal;HPM_P1;HPM_P2
2022/10/12 00:00:01;;;;;;;;;7.50;5.25;;;;;15.30;50.44;101607.19;4994933;28;45577;-77
2022/10/12 00:02:26;;;;;;;;;6.75;6.00;;;;;15.26;50.23;101602.25;4995064;28;45747;-78
2022/10/12 00:04:51;;;;;;;;;6.50;6.00;;;;;15.27;50.32;101601.31;4994937;28;45625;-78
2022/10/12 00:07:16;;;;;;;;;7.25;5.25;;;;;15.23;50.41;101592.75;4994895;28;45536;-77
2022/10/12 00:09:42;;;;;;;;;6.75;5.25;;;;;15.25;50.15;101600.56;4994937;28;45608;-77
2022/10/12 00:15:29;;;;;;;;;6.50;5.00;;;;;15.22;50.46;101600.81;4994370;28;45508;-77
2022/10/12 00:17:55;;;;;;;;;5.50;5.50;;;;;15.20;50.54;101600.91;4995154;28;45602;-76
2022/10/12 00:20:20;;;;;;;;;6.25;5.75;;;;;15.17;50.64;101601.13;4994600;28;46532;-76
2022/10/12 00:22:45;;;;;;;;;5.50;5.25;;;;;15.17;50.60;101600.31;4994645;28;46045;-76
2022/10/12 00:25:11;;;;;;;;;5.00;4.25;;;;;15.15;50.58;101597.78;4994600;28;46132;-75
2022/10/12 00:27:36;;;;;;;;;8.75;7.00;;;;;15.14;50.53;101593.44;4994603;28;45550;-75
2022/10/12 00:30:02;;;;;;;;;8.75;7.00;;;;;15.11;50.48;101602.44;4994168;28;45779;-77
2022/10/12 00:32:27;;;;;;;;;7.25;6.00;;;;;15.11;50.74;101598.97;4994475;28;46008;-77
2022/10/12 00:34:53;;;;;;;;;6.25;5.50;;;;;15.11;50.88;101607.72;4994620;28;45679;-77
2022/10/12 00:37:18;;;;;;;;;6.00;5.75;;;;;15.08;50.67;101607.94;4994532;28;45461;-76
2022/10/12 00:39:43;;;;;;;;;7.25;6.00;;;;;15.08;50.76;101599.19;4994452;28;45766;-76
2022/10/12 00:45:31;;;;;;;;;6.00;6.00;;;;;15.01;51.34;101601.44;4994134;28;45866;-77
2022/10/12 00:47:59;;;;;;;;;8.00;8.00;;;;;14.98;51.60;101599.03;4994510;28;45635;-77
2022/10/12 00:50:34;;;;;;;;;11.00;7.75;;;;;14.95;51.49;101601.06;4993961;28;46750;-78
2022/10/12 00:53:10;;;;;;;;;7.50;7.00;;;;;14.94;51.63;101605.50;4994341;28;46104;-78
2022/10/12 00:55:51;;;;;;;;;7.00;7.00;;;;;14.90;51.97;101598.72;4976254;28;45545;-77
2022/10/12 00:58:17;;;;;;;;;6.00;6.00;;;;;14.84;51.97;101601.84;4994479;28;45687;-77
2022/10/12 01:00:43;;;;;;;;;8.75;5.25;;;;;14.81;51.97;101596.78;4994113;28;45517;-77
2022/10/12 01:03:13;;;;;;;;;9.00;7.00;;;;;14.80;52.06;101608.28;4976090;28;46214;-77
2022/10/12 01:05:39;;;;;;;;;11.75;8.75;;;;;14.74;52.28;101590.25;4994113;28;45845;-78
2022/10/12 01:08:04;;;;;;;;;9.00;7.00;;;;;14.73;52.39;101595.66;4976250;28;45926;-77
2022/10/12 01:10:30;;;;;;;;;8.75;8.50;;;;;14.69;52.60;101593.22;4994075;28;46477;-77
2022/10/12 01:16:23;;;;;;;;;5.50;5.00;;;;;14.67;52.35;101589.03;4993814;28;45751;-77
2022/10/12 01:19:02;;;;;;;;;10.00;9.00;;;;;14.63;53.14;101584.91;4994124;28;45541;-77
2022/10/12 01:21:28;;;;;;;;;10.25;8.00;;;;;14.62;52.96;101591.16;4993971;28;46630;-77
2022/10/12 01:23:53;;;;;;;;;7.00;7.00;;;;;14.60;53.01;101587.78;4993990;28;46061;-77
2022/10/12 01:26:43;;;;;;;;;6.00;5.00;;;;;14.57;53.17;101590.66;4993837;28;45669;-77
2022/10/12 01:29:34;;;;;;;;;6.00;6.00;;;;;14.55;52.93;101587.28;4994029;28;45803;-77
2022/10/12 01:32:05;;;;;;;;;5.50;5.25;;;;;14.53;53.23;101591.81;4993738;28;45597;-77
2022/10/12 01:34:39;;;;;;;;;6.00;5.75;;;;;14.47;52.99;101590.44;4993765;28;46288;-75
2022/10/12 01:37:12;;;;;;;;;7.25;6.00;;;;;14.46;53.26;101586.16;4993720;28;45762;-75
2022/10/12 01:39:45;;;;;;;;;7.75;6.00;;;;;14.43;53.46;101583.72;4993963;28;45512;-75
2022/10/12 01:42:18;;;;;;;;;7.00;6.00;;;;;14.38;53.46;101580.56;4993557;28;45782;-78
2022/10/12 01:44:44;;;;;;;;;6.00;5.00;;;;;14.33;53.50;101585.28;4993742;28;46048;-78
2022/10/12 01:47:09;;;;;;;;;5.25;5.25;;;;;14.24;54.00;101575.41;4993593;28;45480;-77
2022/10/12 01:49:35;;;;;;;;;7.50;5.50;;;;;14.20;53.86;101582.69;4993802;28;45553;-78
2022/10/12 01:52:26;;;;;;;;;5.75;5.00;;;;;14.19;54.08;101577.53;4993409;28;49215;-75
2022/10/12 01:55:22;;;;;;;;;8.00;5.25;;;;;14.16;54.03;101583.00;4993612;28;46107;-76
2022/10/12 01:58:12;;;;;;;;;11.25;6.00;;;;;14.13;54.08;101585.88;4993553;28;45728;-75
2022/10/12 02:00:48;;;;;;;;;5.00;5.00;;;;;14.09;54.19;101577.31;4993649;28;45569;-76
2022/10/12 02:03:32;;;;;;;;;5.50;5.50;;;;;14.07;54.66;101573.13;4995322;28;46963;-76
2022/10/12 02:06:15;;;;;;;;;5.25;5.25;;;;;14.04;54.21;101573.31;4996611;28;46153;-76
2022/10/12 02:08:55;;;;;;;;;5.25;5.00;;;;;14.00;54.30;101572.69;4996756;28;45780;-76
2022/10/12 02:14:49;;;;;;;;;3.50;3.50;;;;;13.94;54.72;101573.13;4996419;28;45643;-76
2022/10/12 02:17:19;;;;;;;;;7.25;6.50;;;;;13.91;54.91;101569.88;4996703;28;46146;-76
2022/10/12 02:19:51;;;;;;;;;6.25;5.00;;;;;13.85;54.69;101574.63;4996738;28;45788;-76
2022/10/12 02:22:17;;;;;;;;;10.50;8.00;;;;;13.81;54.54;101573.16;4996654;28;45752;-76
2022/10/12 02:24:48;;;;;;;;;8.00;5.50;;;;;13.77;54.73;101571.66;4996502;28;46815;-76
2022/10/12 02:30:42;;;;;;;;;8.75;8.00;;;;;13.71;55.25;101563.38;4995133;28;45781;-75
2022/10/12 02:33:24;;;;;;;;;8.75;8.00;;;;;13.67;55.29;101556.59;4996441;28;45910;-76
2022/10/12 02:35:59;;;;;;;;;5.00;5.00;;;;;13.63;55.45;101553.34;4996297;28;45621;-76
2022/10/12 02:38:32;;;;;;;;;7.00;5.00;;;;;13.61;55.28;101549.97;4996127;28;46436;-75
2022/10/12 02:41:05;;;;;;;;;10.50;8.00;;;;;13.56;55.22;101545.94;4996333;28;45792;-78
2022/10/12 02:46:54;;;;;;;;;8.00;7.75;;;;;13.51;55.76;101538.38;4995762;28;46299;-78
2022/10/12 02:49:23;;;;;;;;;8.00;6.50;;;;;13.45;55.74;101539.63;4996198;28;46066;-77
2022/10/12 02:51:49;;;;;;;;;7.00;7.00;;;;;13.45;55.57;101538.78;4996090;28;45728;-77
2022/10/12 02:54:15;;;;;;;;;8.00;8.00;;;;;13.41;55.65;101537.31;4996247;28;45768;-76
2022/10/12 02:56:45;;;;;;;;;11.00;9.75;;;;;13.39;56.08;101542.69;4995793;28;46202;-76
2022/10/12 02:59:14;;;;;;;;;9.75;8.00;;;;;13.37;55.72;101533.22;4995889;28;46116;-76
2022/10/12 03:01:40;;;;;;;;;9.50;8.00;;;;;13.33;56.08;101537.00;4996003;28;45655;-76
2022/10/12 03:04:05;;;;;;;;;8.50;8.00;;;;;13.28;56.05;101528.59;4995916;28;45630;-77
2022/10/12 03:06:30;;;;;;;;;10.25;8.00;;;;;13.25;56.26;101521.72;4995529;28;46162;-76
2022/10/12 03:08:56;;;;;;;;;11.50;10.50;;;;;13.27;56.48;101534.78;4995911;28;45922;-78
2022/10/12 03:11:22;;;;;;;;;9.25;8.75;;;;;13.25;55.97;101537.53;4995846;28;45832;-77
2022/10/12 03:17:10;;;;;;;;;9.00;7.50;;;;;13.19;56.46;101530.03;4995385;28;45641;-77
2022/10/12 03:19:37;;;;;;;;;9.00;7.00;;;;;13.19;56.28;101535.28;4995690;28;45647;-76
2022/10/12 03:22:02;;;;;;;;;9.00;8.00;;;;;13.17;56.68;101528.47;4995535;28;45858;-76
2022/10/12 03:24:28;;;;;;;;;7.00;5.00;;;;;13.17;56.47;101528.47;4994279;28;45962;-79
2022/10/12 03:26:53;;;;;;;;;6.00;5.00;;;;;13.16;56.71;101526.78;4995400;28;45642;-79
2022/10/12 03:29:19;;;;;;;;;9.00;8.00;;;;;13.16;56.57;101530.25;4995381;28;45908;-78
2022/10/12 03:31:44;;;;;;;;;6.50;6.50;;;;;13.15;56.59;101519.81;4995558;28;45690;-78
2022/10/12 03:34:09;;;;;;;;;6.50;5.00;;;;;13.11;56.39;101524.44;4995620;28;45614;-75
2022/10/12 03:36:35;;;;;;;;;9.25;5.00;;;;;13.13;56.54;101521.69;4995259;28;46589;-76
2022/10/12 03:39:00;;;;;;;;;8.00;7.00;;;;;13.17;56.40;101523.19;4995351;28;45703;-79
2022/10/12 03:41:26;;;;;;;;;8.00;7.50;;;;;13.18;56.87;101530.97;4995516;28;45709;-78
2022/10/12 03:47:13;;;;;;;;;9.00;7.00;;;;;13.21;56.36;101527.31;4994822;28;45761;-76
2022/10/12 03:49:39;;;;;;;;;6.25;5.75;;;;;13.22;56.21;101527.22;4993672;28;46598;-76
2022/10/12 03:52:04;;;;;;;;;7.00;5.00;;;;;13.23;56.54;101530.66;4995226;28;45664;-78
2022/10/12 03:54:29;;;;;;;;;5.00;4.75;;;;;13.21;56.44;101525.53;4995367;28;45643;-75
2022/10/12 03:56:55;;;;;;;;;7.25;5.50;;;;;13.24;56.52;101533.19;4994981;28;45584;-78
2022/10/12 04:02:42;;;;;;;;;7.50;7.00;;;;;13.23;56.85;101528.03;4994656;28;45770;-77
2022/10/12 04:05:09;;;;;;;;;7.25;6.50;;;;;13.20;56.71;101533.50;4995232;28;45559;-78
2022/10/12 04:07:35;;;;;;;;;6.25;4.00;;;;;13.22;56.64;101523.72;4994912;28;45708;-77
2022/10/12 04:10:00;;;;;;;;;5.00;4.00;;;;;13.22;56.60;101527.22;4994860;28;45796;-78
2022/10/12 04:12:26;;;;;;;;;5.50;5.00;;;;;13.24;56.61;101527.94;4994889;28;45617;-77
2022/10/12 04:14:51;;;;;;;;;10.00;6.25;;;;;13.25;56.75;101527.00;4994930;28;45785;-78
2022/10/12 04:17:17;;;;;;;;;8.75;5.50;;;;;13.27;56.83;101529.53;4994732;28;45640;-76
2022/10/12 04:19:43;;;;;;;;;8.00;6.25;;;;;13.26;56.73;101533.94;4994697;28;45651;-76
2022/10/12 04:22:09;;;;;;;;;6.25;6.25;;;;;13.24;57.13;101527.94;4994687;28;45622;-75
2022/10/12 04:24:34;;;;;;;;;10.00;7.00;;;;;13.26;56.73;101533.09;4994411;28;45447;-77
2022/10/12 04:27:00;;;;;;;;;8.50;5.00;;;;;13.24;56.78;101535.81;4994279;28;46544;-76
2022/10/12 04:33:14;;;;;;;;;8.25;7.25;;;;;13.23;57.67;101547.28;4993049;28;46619;-76
2022/10/12 04:35:39;;;;;;;;;7.50;7.00;;;;;13.20;57.31;101546.66;4994739;28;45832;-77
2022/10/12 04:38:05;;;;;;;;;7.50;7.00;;;;;13.18;57.48;101551.19;4976666;28;47406;-77
2022/10/12 04:40:30;;;;;;;;;5.25;5.00;;;;;13.14;57.80;101560.22;4994464;28;46148;-77
2022/10/12 04:42:56;;;;;;;;;6.00;5.00;;;;;13.11;58.00;101558.63;4994368;28;45612;-77
2022/10/12 04:45:21;;;;;;;;;7.00;5.00;;;;;13.08;57.51;101547.44;4994392;28;45928;-77
2022/10/12 04:47:47;;;;;;;;;5.50;5.50;;;;;13.08;57.51;101544.81;4994262;28;45701;-77
2022/10/12 04:50:12;;;;;;;;;10.00;8.25;;;;;13.05;57.86;101545.88;4994320;28;46351;-77
2022/10/12 04:52:38;;;;;;;;;7.00;5.00;;;;;13.03;57.81;101545.97;4994446;28;45596;-77
2022/10/12 04:55:04;;;;;;;;;8.00;7.25;;;;;13.01;57.86;101542.59;4994378;28;45756;-77
2022/10/12 04:57:29;;;;;;;;;8.00;6.25;;;;;12.96;58.20;101539.41;4994306;28;45779;-77
2022/10/12 05:03:16;;;;;;;;;7.00;7.00;;;;;12.89;58.25;101530.25;4993879;28;45601;-77
2022/10/12 05:05:43;;;;;;;;;8.00;5.25;;;;;12.88;58.14;101538.25;4994229;28;45687;-77
2022/10/12 05:08:09;;;;;;;;;8.00;5.00;;;;;12.84;58.50;101537.63;4994065;28;45615;-77
2022/10/12 05:10:34;;;;;;;;;7.00;6.00;;;;;12.84;58.37;101539.41;4994128;28;45946;-77
2022/10/12 05:12:59;;;;;;;;;9.00;6.00;;;;;12.78;58.48;101529.28;4993841;28;45891;-77
2022/10/12 05:15:25;;;;;;;;;9.00;8.00;;;;;12.81;58.41;101534.31;4994301;28;45772;-77
2022/10/12 05:17:50;;;;;;;;;7.00;7.00;;;;;12.79;58.27;101533.59;4993997;28;46258;-76
2022/10/12 05:20:16;;;;;;;;;8.25;7.00;;;;;12.79;58.25;101536.22;4993985;28;45625;-76
2022/10/12 05:22:41;;;;;;;;;6.75;6.75;;;;;12.77;58.25;101530.22;4992299;28;46031;-76
2022/10/12 05:25:07;;;;;;;;;7.25;7.25;;;;;12.77;58.65;101538.94;4993860;28;45438;-76
2022/10/12 05:27:32;;;;;;;;;8.50;8.00;;;;;12.80;58.22;101540.53;4993842;28;45596;-77
2022/10/12 05:33:19;;;;;;;;;9.00;9.00;;;;;12.77;58.78;101546.00;4992168;28;45711;-77
2022/10/12 05:35:47;;;;;;;;;8.00;8.00;;;;;12.77;58.85;101546.84;4993881;28;45686;-77
2022/10/12 05:38:12;;;;;;;;;9.25;7.75;;;;;12.75;58.48;101556.59;4995511;28;46303;-78
2022/10/12 05:40:38;;;;;;;;;8.25;7.25;;;;;12.76;58.84;101552.19;4997154;28;46241;-77
2022/10/12 05:43:03;;;;;;;;;9.50;8.00;;;;;12.73;58.87;101549.78;4978979;28;45656;-77
2022/10/12 05:48:50;;;;;;;;;7.75;6.25;;;;;12.71;59.16;101543.75;4995992;28;46189;-74
2022/10/12 05:51:16;;;;;;;;;10.50;9.25;;;;;12.69;59.22;101545.63;4995088;28;45976;-73
2022/10/12 05:53:41;;;;;;;;;10.50;9.25;;;;;12.69;58.88;101540.38;4995159;28;45621;-74
2022/10/12 05:56:07;;;;;;;;;11.00;10.50;;;;;12.69;58.97;101541.22;4977529;28;45595;-73
2022/10/12 05:58:32;;;;;;;;;12.50;9.25;;;;;12.71;58.98;101541.13;4994617;28;46313;-73
2022/10/12 06:01:06;;;;;;;;;10.25;9.25;;;;;12.70;59.11;101527.13;4995161;28;46016;-74
2022/10/12 06:03:31;;;;;;;;;12.00;10.50;;;;;12.72;58.86;101532.31;4994962;28;45509;-76
2022/10/12 06:05:57;;;;;;;;;7.75;7.00;;;;;12.75;58.54;101534.72;4996433;28;45521;-74
2022/10/12 06:08:22;;;;;;;;;10.50;10.00;;;;;12.76;58.79;101545.16;4996509;28;45517;-74
2022/10/12 06:10:50;;;;;;;;;12.00;9.75;;;;;12.78;59.16;101537.16;4996781;28;45636;-74
2022/10/12 06:13:16;;;;;;;;;52.75;41.50;;;;;12.79;58.91;101541.50;4978612;28;45831;-77
2022/10/12 06:19:03;;;;;;;;;10.75;9.00;;;;;12.84;58.98;101534.13;4996349;28;45532;-78
2022/10/12 06:21:28;;;;;;;;;10.25;10.00;;;;;12.86;58.89;101542.75;4996602;28;46130;-77
2022/10/12 06:23:54;;;;;;;;;12.00;11.00;;;;;12.86;59.34;101537.50;4996496;28;46062;-75
2022/10/12 06:26:19;;;;;;;;;10.00;8.00;;;;;12.89;59.20;101550.47;4996266;28;45918;-78
2022/10/12 06:28:45;;;;;;;;;9.00;9.00;;;;;12.89;58.93;101550.47;4995866;28;46985;-81
2022/10/12 06:31:10;;;;;;;;;8.75;8.75;;;;;12.89;59.54;101556.56;4996028;28;46084;-75
2022/10/12 06:33:35;;;;;;;;;8.00;7.75;;;;;12.91;59.15;101561.69;4995888;28;45698;-77
2022/10/12 06:36:01;;;;;;;;;11.25;10.25;;;;;12.91;59.35;101559.91;4996254;28;45801;-77
2022/10/12 06:38:26;;;;;;;;;10.25;9.50;;;;;12.92;59.22;101563.41;4994813;28;47735;-73
2022/10/12 06:40:54;;;;;;;;;11.25;10.25;;;;;12.92;59.30;101563.41;4995949;28;46139;-73
2022/10/12 06:43:21;;;;;;;;;17.50;12.50;;;;;12.92;59.24;101558.13;4995800;28;45531;-77
2022/10/12 06:49:09;;;;;;;;;12.50;10.50;;;;;12.89;59.18;101568.88;4995140;28;45652;-77
2022/10/12 06:51:34;;;;;;;;;13.00;11.00;;;;;12.87;59.58;101576.84;4996016;28;45643;-78
2022/10/12 06:53:59;;;;;;;;;13.50;11.75;;;;;12.88;59.60;101569.81;4995612;28;45635;-78
2022/10/12 06:56:25;;;;;;;;;13.75;12.75;;;;;12.87;59.42;101570.75;4995887;28;45606;-75
2022/10/12 06:58:56;;;;;;;;;14.25;12.00;;;;;12.86;59.25;101571.69;4996014;28;45511;-72
2022/10/12 07:04:47;;;;;;;;;13.50;13.50;;;;;12.82;59.83;101580.72;4995522;28;45700;-72
2022/10/12 07:07:13;;;;;;;;;16.25;13.50;;;;;12.80;59.67;101588.69;4995952;28;45645;-74
2022/10/12 07:09:38;;;;;;;;;14.75;10.75;;;;;12.81;59.85;101589.56;4995843;28;45635;-73
2022/10/12 07:12:03;;;;;;;;;15.75;14.00;;;;;12.82;59.61;101589.47;4995561;28;45723;-71
2022/10/12 07:14:29;;;;;;;;;15.75;15.00;;;;;12.83;59.75;101585.03;4995262;28;45514;-72
2022/10/12 07:16:55;;;;;;;;;14.25;13.50;;;;;12.83;59.52;101574.53;4995266;28;45517;-73
2022/10/12 07:19:21;;;;;;;;;14.25;11.00;;;;;12.83;59.64;101587.69;4993607;28;47091;-72
2022/10/12 07:21:46;;;;;;;;;16.25;14.75;;;;;12.84;59.42;101589.38;4995260;28;46403;-73
2022/10/12 07:24:12;;;;;;;;;14.75;12.50;;;;;12.82;59.42;101586.81;4995390;28;45618;-70
2022/10/12 07:26:37;;;;;;;;;15.00;14.50;;;;;12.83;59.41;101582.41;4995617;28;45726;-72
2022/10/12 07:29:02;;;;;;;;;17.25;14.25;;;;;12.84;59.42;101589.38;4995493;28;46756;-70
2022/10/12 07:34:49;;;;;;;;;15.00;14.75;;;;;12.89;59.78;101590.75;4993182;28;45647;-72
2022/10/12 07:37:14;;;;;;;;;16.25;15.50;;;;;12.91;59.51;101599.38;4977541;28;45849;-72
2022/10/12 07:39:40;;;;;;;;;17.75;16.00;;;;;12.94;59.84;101601.81;4995162;28;46544;-73
2022/10/12 07:42:06;;;;;;;;;20.50;14.00;;;;;12.96;59.32;101602.53;4994392;28;46889;-74
2022/10/12 07:44:32;;;;;;;;;16.75;16.00;;;;;13.00;59.31;101597.94;4994933;28;45594;-72
2022/10/12 07:46:57;;;;;;;;;18.00;15.75;;;;;13.04;59.22;101602.06;4994971;28;45861;-71
2022/10/12 07:49:23;;;;;;;;;15.75;15.00;;;;;13.07;59.33;101598.38;4994909;28;46255;-72
2022/10/12 07:51:48;;;;;;;;;18.25;13.75;;;;;13.09;59.59;101599.13;4993483;28;47364;-72
2022/10/12 07:54:14;;;;;;;;;18.50;15.00;;;;;13.15;59.53;101617.19;4994973;28;45586;-72
2022/10/12 07:56:41;;;;;;;;;19.50;17.00;;;;;13.17;59.41;101608.22;4994894;28;45528;-73
2022/10/12 07:59:06;;;;;;;;;16.75;15.25;;;;;13.21;59.43;101608.88;4994465;28;46333;-72
2022/10/12 08:04:53;;;;;;;;;18.00;18.00;;;;;13.27;58.92;101611.13;4994433;28;45534;-72
2022/10/12 08:07:19;;;;;;;;;18.25;14.50;;;;;13.30;59.26;101614.38;4994791;28;45530;-71
2022/10/12 08:09:46;;;;;;;;;19.50;16.75;;;;;13.34;59.46;101609.75;4994939;28;46360;-73
2022/10/12 08:12:11;;;;;;;;;19.25;17.50;;;;;13.37;58.66;101615.66;4994334;28;47213;-76
2022/10/12 08:14:37;;;;;;;;;23.00;18.75;;;;;13.42;58.97;101624.09;4994558;28;45687;-77
2022/10/12 08:20:24;;;;;;;;;18.75;17.75;;;;;13.52;58.64;101623.47;4994603;28;45932;-76
2022/10/12 08:22:49;;;;;;;;;23.75;21.75;;;;;13.55;59.12;101621.47;4994243;28;46769;-79
2022/10/12 08:25:15;;;;;;;;;22.75;21.50;;;;;13.59;58.58;101625.59;4994042;28;45592;-77
2022/10/12 08:27:40;;;;;;;;;23.75;20.75;;;;;13.63;58.44;101620.97;4994753;28;45644;-77
2022/10/12 08:30:06;;;;;;;;;22.00;20.00;;;;;13.67;58.49;101620.66;4994508;28;46444;-78
2022/10/12 08:32:32;;;;;;;;;24.00;21.75;;;;;13.69;58.71;101616.13;4994189;28;46879;-79
2022/10/12 08:34:57;;;;;;;;;24.25;20.75;;;;;13.75;58.35;101615.72;4994087;28;45559;-79
2022/10/12 08:37:23;;;;;;;;;20.50;19.50;;;;;13.79;58.50;101621.59;4993390;28;45898;-77
2022/10/12 08:39:48;;;;;;;;;23.50;21.50;;;;;13.83;58.36;101616.00;4994442;28;45580;-76
2022/10/12 08:42:13;;;;;;;;;23.00;21.25;;;;;13.89;58.30;101620.03;4993807;28;46506;-78
2022/10/12 08:51:27;;;;;;;;;23.50;21.75;;;;;14.03;58.37;101619.94;4914233;28;45689;-78
2022/10/12 08:54:07;;;;;;;;;22.25;20.50;;;;;14.08;58.60;101622.25;4913905;28;46507;-76
2022/10/12 08:56:38;;;;;;;;;27.25;22.25;;;;;14.14;58.27;101637.63;4914288;28;45684;-79
2022/10/12 08:59:04;;;;;;;;;25.00;21.00;;;;;14.18;58.57;101641.75;4914504;28;45951;-79
2022/10/12 09:01:36;;;;;;;;;22.50;20.50;;;;;14.23;58.13;101642.25;4913979;28;46870;-79
2022/10/12 09:04:19;;;;;;;;;26.00;22.50;;;;;14.27;58.37;101639.28;4913321;28;47115;-78
2022/10/12 09:07:03;;;;;;;;;27.00;23.50;;;;;14.34;58.24;101628.31;4914142;28;45984;-76
2022/10/12 09:09:28;;;;;;;;;26.00;21.50;;;;;14.38;58.49;101624.53;4914550;28;45747;-73
2022/10/12 09:12:05;;;;;;;;;23.33;21.67;;;;;14.43;58.00;101631.19;4915824;28;45702;-77
2022/10/12 09:14:36;;;;;;;;;30.50;26.00;;;;;14.49;58.23;101624.63;4917936;28;46405;-77
2022/10/12 09:17:13;;;;;;;;;27.25;26.00;;;;;14.55;58.12;101619.75;4917582;28;45876;-78
2022/10/12 09:19:41;;;;;;;;;28.00;23.75;;;;;14.60;58.48;101622.91;4917555;28;45588;-78
2022/10/12 09:22:18;;;;;;;;;27.25;24.00;;;;;14.65;58.01;101626.06;4917717;28;45751;-78
2022/10/12 09:24:47;;;;;;;;;25.25;23.00;;;;;14.71;57.96;101622.16;4961970;28;46553;-78
2022/10/12 09:27:15;;;;;;;;;27.50;24.00;;;;;14.76;57.95;101617.38;4996141;28;45948;-79
2022/10/12 09:29:44;;;;;;;;;28.00;26.00;;;;;14.81;57.82;101609.13;4995978;28;45536;-76
2022/10/12 09:32:36;;;;;;;;;28.25;27.25;;;;;14.87;57.80;101604.25;4996929;28;46443;-77
2022/10/12 09:35:03;;;;;;;;;27.75;24.00;;;;;14.94;57.59;101615.19;4996886;28;46242;-79
2022/10/12 09:37:31;;;;;;;;;32.50;26.00;;;;;14.98;58.08;101614.88;4997115;28;46051;-75
2022/10/12 09:39:58;;;;;;;;;29.50;24.25;;;;;15.05;58.10;101610.81;4997308;28;45658;-78
2022/10/12 09:42:24;;;;;;;;;32.50;27.50;;;;;15.10;58.04;101603.41;4996843;28;47408;-78
2022/10/12 09:44:58;;;;;;;;;30.00;26.00;;;;;15.18;58.12;101605.47;4998445;28;45893;-77
2022/10/12 09:47:31;;;;;;;;;29.75;25.00;;;;;15.24;58.22;101596.25;5005543;28;45575;-78
2022/10/12 09:50:07;;;;;;;;;29.50;25.50;;;;;15.30;58.03;101594.00;4985900;28;45832;-76
2022/10/12 09:52:35;;;;;;;;;31.50;23.75;;;;;15.38;57.94;101591.63;4999473;28;46674;-78
2022/10/12 09:55:04;;;;;;;;;26.75;24.00;;;;;15.43;58.13;101594.75;4997946;28;46082;-78
2022/10/12 09:57:35;;;;;;;;;26.50;21.50;;;;;15.49;58.15;101594.28;4997311;28;45553;-74
2022/10/12 10:00:05;;;;;;;;;26.25;23.75;;;;;15.54;57.96;101593.97;4996832;28;45565;-78
2022/10/12 10:02:33;;;;;;;;;27.50;23.25;;;;;15.60;58.47;101590.03;4996542;28;47378;-75
2022/10/12 10:05:21;;;;;;;;;7.50;7.50;;;;;15.67;58.46;101585.94;4996886;28;46007;-76
2022/10/12 10:07:46;;;;;;;;;22.00;20.00;;;;;15.74;58.70;101581.88;4996568;28;45708;-77
2022/10/12 10:10:23;;;;;;;;;27.75;25.25;;;;;15.80;58.72;101582.25;4995263;28;45579;-78
2022/10/12 10:12:50;;;;;;;;;26.50;21.25;;;;;15.88;58.86;101585.13;4996509;28;47024;-77
2022/10/12 10:15:37;;;;;;;;;19.75;18.25;;;;;15.94;58.80;101574.09;4996118;28;45616;-76
2022/10/12 10:18:33;;;;;;;;;25.50;19.75;;;;;16.04;58.77;101576.84;4996423;28;45852;-76
2022/10/12 10:21:00;;;;;;;;;21.00;18.75;;;;;16.09;58.77;101568.53;4996657;28;45919;-73
2022/10/12 10:23:31;;;;;;;;;21.00;20.25;;;;;16.14;58.50;101571.69;4995487;28;45642;-79
2022/10/12 10:26:11;;;;;;;;;24.50;20.25;;;;;16.22;58.21;101582.50;4996342;28;46174;-78
2022/10/12 10:28:39;;;;;;;;;21.75;20.25;;;;;16.27;58.68;101570.59;4996194;28;45620;-79
2022/10/12 10:34:26;;;;;;;;;21.00;18.50;;;;;16.46;58.65;101569.13;4995875;28;46050;-78
2022/10/12 10:36:55;;;;;;;;;20.75;18.25;;;;;16.53;58.14;101563.19;4995990;28;45607;-78
2022/10/12 10:39:25;;;;;;;;;20.75;19.00;;;;;16.62;58.09;101581.03;4994683;28;45557;-79
2022/10/12 10:41:54;;;;;;;;;17.50;15.50;;;;;16.69;58.14;101568.13;4996170;28;45671;-78
2022/10/12 10:44:19;;;;;;;;;18.25;16.25;;;;;16.78;57.98;101573.53;4994492;28;46350;-79
2022/10/12 10:50:28;;;;;;;;;21.50;19.00;;;;;16.97;57.74;101561.41;4996167;28;45592;-80
2022/10/12 10:52:57;;;;;;;;;19.25;18.00;;;;;17.05;57.52;101558.97;4996222;28;45659;-79
2022/10/12 10:55:45;;;;;;;;;22.50;18.00;;;;;17.12;57.46;101554.84;4977553;28;46636;-78
2022/10/12 10:58:37;;;;;;;;;16.75;14.25;;;;;17.22;56.83;101561.03;4995751;28;47166;-77
2022/10/12 11:07:33;;;;;;;;;22.00;19.50;;;;;17.48;56.48;101558.88;4995417;28;46057;-76
2022/10/12 11:10:04;;;;;;;;;22.75;21.00;;;;;17.55;55.88;101565.31;4995318;28;46654;-71
2022/10/12 11:12:36;;;;;;;;;14.75;11.00;;;;;17.61;56.20;101572.75;4995662;28;45870;-77
2022/10/12 11:15:19;;;;;;;;;15.00;12.25;;;;;17.68;55.70;101571.28;4995733;28;45720;-77
2022/10/12 11:17:49;;;;;;;;;16.00;15.00;;;;;17.76;55.46;101570.63;4995396;28;45702;-73
2022/10/12 11:20:20;;;;;;;;;16.00;14.00;;;;;17.85;55.67;101564.53;4995080;28;47257;-71
2022/10/12 11:23:02;;;;;;;;;22.50;18.25;;;;;17.92;55.60;101555.09;4995325;28;45780;-74
2022/10/12 11:25:37;;;;;;;;;18.50;17.25;;;;;18.00;55.44;101556.09;4994067;28;45954;-73
2022/10/12 11:28:05;;;;;;;;;15.25;14.25;;;;;18.09;55.01;101561.53;4995367;28;46329;-74
2022/10/12 11:30:40;;;;;;;;;16.00;15.00;;;;;18.15;55.23;101550.41;4995295;28;45991;-75
2022/10/12 11:33:13;;;;;;;;;16.00;14.50;;;;;18.20;55.25;101549.03;4995171;28;45680;-77
2022/10/12 11:35:45;;;;;;;;;17.75;16.75;;;;;18.28;54.97;101554.50;4994893;28;45453;-75
2022/10/12 11:38:28;;;;;;;;;17.50;13.75;;;;;18.36;55.09;101552.00;4994842;28;47394;-78
2022/10/12 11:41:07;;;;;;;;;17.50;15.50;;;;;18.43;54.46;101544.34;4995332;28;45993;-78
2022/10/12 11:43:40;;;;;;;;;16.00;14.25;;;;;18.50;54.97;101540.19;4995134;28;45719;-74
2022/10/12 11:46:09;;;;;;;;;17.00;16.50;;;;;18.57;54.41;101532.53;4994992;28;45530;-75
2022/10/12 11:49:05;;;;;;;;;14.75;13.25;;;;;18.64;54.29;101531.00;4994756;28;46593;-77
2022/10/12 11:51:30;;;;;;;;;16.00;14.75;;;;;18.69;54.18;101523.44;4915148;28;46869;-76
2022/10/12 11:54:18;;;;;;;;;17.25;14.75;;;;;18.76;54.39;101524.56;4915424;28;45736;-74
2022/10/12 11:56:49;;;;;;;;;12.75;11.75;;;;;18.83;54.19;101521.25;4915182;28;45710;-74
2022/10/12 11:59:37;;;;;;;;;16.50;13.75;;;;;18.89;53.62;101511.88;4899412;28;45616;-73
2022/10/12 12:05:30;;;;;;;;;16.00;14.25;;;;;19.03;53.98;101519.41;4914474;28;45800;-75
2022/10/12 12:07:57;;;;;;;;;16.00;14.00;;;;;19.09;53.91;101508.22;4914999;28;45521;-75
2022/10/12 12:10:22;;;;;;;;;16.50;14.50;;;;;19.15;53.66;101501.50;4914810;28;45812;-72
2022/10/12 12:13:12;;;;;;;;;16.75;14.00;;;;;19.21;53.25;101500.94;4914569;28;47044;-76
2022/10/12 12:15:39;;;;;;;;;16.50;15.00;;;;;19.26;53.80;101496.03;4915090;28;45698;-78
2022/10/12 12:21:25;;;;;;;;;12.50;10.75;;;;;19.39;52.75;101477.94;4914808;28;45670;-78
2022/10/12 12:23:53;;;;;;;;;13.00;12.00;;;;;19.45;52.70;101471.22;4914765;28;46044;-80
2022/10/12 12:26:23;;;;;;;;;12.75;11.50;;;;;19.51;52.67;101475.97;4914609;28;45743;-76
2022/10/12 12:29:06;;;;;;;;;13.50;13.00;;;;;19.58;52.74;101469.09;4967884;28;45787;-76
2022/10/12 12:31:32;;;;;;;;;15.25;13.00;;;;;19.64;52.43;101465.84;4994110;28;46535;-76
2022/10/12 12:37:33;;;;;;;;;14.50;13.25;;;;;19.76;52.29;101472.63;4992837;28;45829;-73
2022/10/12 12:39:59;;;;;;;;;15.00;12.75;;;;;19.80;52.37;101482.00;4994379;28;45442;-73
2022/10/12 12:42:31;;;;;;;;;11.25;10.50;;;;;19.85;52.34;101477.09;4994017;28;45809;-73
2022/10/12 12:44:57;;;;;;;;;14.00;13.50;;;;;19.88;52.14;101476.78;4994125;28;47096;-79
2022/10/12 12:47:38;;;;;;;;;11.75;11.75;;;;;19.92;52.25;101467.50;4993735;28;45651;-76
2022/10/12 12:50:25;;;;;;;;;12.75;11.00;;;;;19.95;51.81;101463.72;4994183;28;45654;-76
2022/10/12 12:52:56;;;;;;;;;11.75;10.50;;;;;19.97;51.32;101475.06;4994095;28;45544;-74
2022/10/12 12:55:59;;;;;;;;;12.00;10.00;;;;;19.99;50.90;101473.91;4993916;28;47258;-76
2022/10/12 12:58:54;;;;;;;;;13.75;10.50;;;;;19.97;51.07;101464.44;4994290;28;45691;-80
2022/10/12 13:01:19;;;;;;;;;9.00;6.75;;;;;19.95;50.42;101456.59;4976285;28;45631;-75